< < Back
Terminal Aerodrome Forecast


Current Version              Previous Versions:   1  2  3  4  5  6  7  8  9  

Terminal Aerodrome Forecast

343
FTUS42 KTAE 190300 AAB
TAFDHN
TAF AMD
KDHN 190356Z 1904/1924 00000KT P6SM BKN110
     FM190800 03004KT P6SM BKN040 OVC100
     FM192000 04004KT 6SM -RA BKN040 OVC100=



Latest METAR

106
SAUS70 KWBC 191200 RRE
MTRDHN
METAR KDHN 191153Z 02006KT 10SM FEW045 OVC055 09/02 A3017 RMK AO2 SLP214
T00940017 10100 20089 53003 $


USA.gov is the U.S. government's official web portal to all federal, state and local government web resources and services.